createdAt,value
2022-09-06T00:00:28.413Z,2.67
2022-09-06T00:02:55.433Z,2.60
2022-09-06T00:05:25.793Z,2.88
2022-09-06T00:07:52.450Z,2.92
2022-09-06T00:10:24.711Z,2.63
2022-09-06T00:12:51.265Z,2.63
2022-09-06T00:15:24.459Z,2.30
2022-09-06T00:17:51.709Z,2.60
2022-09-06T00:20:18.296Z,2.55
2022-09-06T00:22:46.517Z,2.55
2022-09-06T00:25:13.068Z,2.92
2022-09-06T00:27:44.021Z,2.88
2022-09-06T00:30:11.285Z,2.78
2022-09-06T00:32:37.809Z,2.90
2022-09-06T00:35:05.658Z,3.30
2022-09-06T00:37:38.313Z,2.90
2022-09-06T00:40:05.298Z,2.80
2022-09-06T00:42:31.837Z,2.95
2022-09-06T00:44:59.129Z,2.88
2022-09-06T00:47:27.351Z,2.75
2022-09-06T00:49:57.184Z,2.78
2022-09-06T00:52:27.228Z,3.00
2022-09-06T00:54:54.578Z,2.75
2022-09-06T00:57:21.448Z,2.50
2022-09-06T00:59:50.493Z,2.90
2022-09-06T01:02:17.116Z,2.90
2022-09-06T01:04:45.744Z,2.55
2022-09-06T01:07:35.802Z,2.78
2022-09-06T01:10:40.742Z,2.55
2022-09-06T01:13:22.769Z,2.92
2022-09-06T01:16:07.567Z,2.75
2022-09-06T01:18:45.631Z,2.70
2022-09-06T01:21:21.452Z,2.30
2022-09-06T01:24:11.451Z,2.78
2022-09-06T01:27:15.190Z,3.00
2022-09-06T01:29:45.726Z,2.42
2022-09-06T01:32:12.249Z,3.05
2022-09-06T01:34:45.522Z,2.42
2022-09-06T01:37:18.173Z,2.45
2022-09-06T01:39:44.784Z,2.75
2022-09-06T01:42:25.900Z,2.63
2022-09-06T01:44:58.428Z,2.70
2022-09-06T01:47:31.343Z,2.53
2022-09-06T01:50:06.721Z,2.70
2022-09-06T01:52:59.396Z,2.80
2022-09-06T01:55:50.638Z,2.63
2022-09-06T01:58:41.904Z,3.13
2022-09-06T02:01:14.335Z,2.45
2022-09-06T02:04:00.559Z,2.95
2022-09-06T02:09:06.803Z,2.58
2022-09-06T02:11:42.114Z,2.70
2022-09-06T02:14:18.570Z,2.35
2022-09-06T02:16:48.525Z,2.50
2022-09-06T02:19:41.407Z,2.40
2022-09-06T02:22:12.847Z,2.30
2022-09-06T02:24:42.671Z,3.15
2022-09-06T02:27:12.095Z,3.28
2022-09-06T02:29:41.398Z,2.92
2022-09-06T02:32:17.180Z,3.08
2022-09-06T02:37:16.960Z,2.72
2022-09-06T02:39:52.110Z,2.72
2022-09-06T02:42:18.962Z,3.28
2022-09-06T02:44:45.569Z,3.00
2022-09-06T02:47:12.386Z,3.20
2022-09-06T02:49:39.253Z,3.05
2022-09-06T02:52:08.072Z,2.60
2022-09-06T02:54:34.865Z,2.70
2022-09-06T02:57:01.506Z,3.45
2022-09-06T02:59:28.036Z,3.75
2022-09-06T03:01:54.849Z,3.65
2022-09-06T03:04:21.699Z,3.35
2022-09-06T03:06:48.264Z,3.25
2022-09-06T03:09:14.984Z,3.20
2022-09-06T03:11:41.515Z,3.38
2022-09-06T03:14:08.028Z,3.00
2022-09-06T03:16:36.698Z,3.42
2022-09-06T03:19:03.308Z,3.15
2022-09-06T03:21:32.419Z,3.75
2022-09-06T03:24:01.162Z,3.67
2022-09-06T03:26:32.857Z,3.55
2022-09-06T03:28:59.391Z,3.75
2022-09-06T03:31:25.957Z,3.45
2022-09-06T03:33:56.971Z,3.85
2022-09-06T03:36:23.561Z,3.85
2022-09-06T03:38:51.258Z,3.83
2022-09-06T03:41:19.520Z,4.40
2022-09-06T03:43:46.139Z,3.90
2022-09-06T03:46:12.784Z,3.40
2022-09-06T03:48:43.903Z,4.10
2022-09-06T03:51:10.475Z,3.65
2022-09-06T03:53:37.040Z,2.83
2022-09-06T03:56:03.796Z,2.80
2022-09-06T03:58:31.893Z,2.95
2022-09-06T04:01:07.847Z,3.25
2022-09-06T04:03:35.307Z,3.35
2022-09-06T04:06:02.324Z,3.20
2022-09-06T04:08:29.532Z,3.05
2022-09-06T04:10:57.518Z,2.75
2022-09-06T04:13:25.301Z,2.80
2022-09-06T04:16:03.425Z,3.40
2022-09-06T04:18:31.709Z,3.20
2022-09-06T04:20:58.776Z,2.78
2022-09-06T04:23:29.785Z,3.10
2022-09-06T04:25:59.130Z,3.10
2022-09-06T04:28:27.046Z,3.10
2022-09-06T04:31:02.143Z,3.10
2022-09-06T04:33:31.842Z,3.03
2022-09-06T04:36:09.852Z,2.75
2022-09-06T04:38:42.119Z,2.85
2022-09-06T04:41:10.934Z,2.58
2022-09-06T04:43:37.889Z,3.20
2022-09-06T04:46:17.825Z,2.90
2022-09-06T04:48:46.299Z,2.80
2022-09-06T04:51:17.244Z,2.40
2022-09-06T04:53:44.273Z,2.60
2022-09-06T04:56:17.651Z,2.53
2022-09-06T04:58:45.717Z,2.65
2022-09-06T05:01:12.719Z,2.70
2022-09-06T05:03:41.184Z,3.10
2022-09-06T05:06:20.906Z,2.40
2022-09-06T05:08:48.367Z,2.88
2022-09-06T05:11:17.099Z,2.85
2022-09-06T05:13:45.735Z,2.63
2022-09-06T05:16:18.505Z,2.78
2022-09-06T05:18:45.113Z,3.35
2022-09-06T05:21:11.670Z,3.45
2022-09-06T05:23:40.256Z,3.72
2022-09-06T05:26:06.808Z,3.60
2022-09-06T05:28:35.753Z,3.50
2022-09-06T05:31:08.729Z,3.55
2022-09-06T05:33:35.526Z,3.08
2022-09-06T05:36:06.095Z,2.95
2022-09-06T05:38:32.901Z,3.00
2022-09-06T05:40:59.646Z,3.08
2022-09-06T05:43:26.192Z,2.97
2022-09-06T05:45:58.288Z,3.70
2022-09-06T05:48:24.887Z,3.30
2022-09-06T05:51:06.731Z,3.70
2022-09-06T05:53:34.876Z,3.25
2022-09-06T05:56:01.549Z,3.78
2022-09-06T05:58:34.567Z,3.00
2022-09-06T06:01:18.934Z,2.90
2022-09-06T06:03:57.257Z,3.20
2022-09-06T06:06:26.261Z,3.03
2022-09-06T06:08:52.844Z,3.20
2022-09-06T06:11:21.337Z,3.00
2022-09-06T06:13:47.869Z,3.30
2022-09-06T06:16:16.874Z,2.83
2022-09-06T06:18:47.681Z,3.22
2022-09-06T06:21:22.012Z,3.53
2022-09-06T06:23:58.527Z,3.70
2022-09-06T06:26:28.256Z,4.00
2022-09-06T06:28:55.617Z,2.72
2022-09-06T06:31:22.888Z,3.15
2022-09-06T06:33:50.337Z,3.05
2022-09-06T06:36:17.049Z,3.42
2022-09-06T06:38:45.105Z,3.42
2022-09-06T06:41:14.259Z,3.83
2022-09-06T06:43:40.961Z,3.58
2022-09-06T06:46:15.864Z,2.97
2022-09-06T06:48:43.801Z,3.30
2022-09-06T06:51:12.984Z,3.47
2022-09-06T06:53:41.345Z,3.00
2022-09-06T06:56:24.375Z,3.58
2022-09-06T06:58:53.872Z,3.78
2022-09-06T07:01:22.119Z,3.33
2022-09-06T07:03:49.224Z,3.60
2022-09-06T07:06:17.301Z,3.55
2022-09-06T07:08:44.459Z,3.65
2022-09-06T07:11:13.202Z,3.90
2022-09-06T07:13:44.369Z,3.22
2022-09-06T07:16:20.086Z,3.20
2022-09-06T07:24:10.084Z,2.92
2022-09-06T07:26:40.130Z,3.00
2022-09-06T07:29:15.175Z,3.38
2022-09-06T07:34:35.563Z,3.33
2022-09-06T07:37:02.099Z,3.30
2022-09-06T07:39:28.630Z,3.10
2022-09-06T07:41:55.453Z,3.13
2022-09-06T07:44:22.033Z,3.65
2022-09-06T07:46:48.713Z,3.55
2022-09-06T07:49:17.540Z,3.38
2022-09-06T07:51:44.454Z,3.83
2022-09-06T07:54:30.012Z,3.75
2022-09-06T07:56:59.227Z,4.25
2022-09-06T07:59:25.749Z,6.28
2022-09-06T08:01:53.322Z,5.35
2022-09-06T08:04:20.192Z,5.10
2022-09-06T08:09:36.011Z,5.60
2022-09-06T08:12:07.384Z,5.88
2022-09-06T08:14:34.973Z,6.25
2022-09-06T08:17:02.661Z,6.60
2022-09-06T08:19:29.214Z,5.68
2022-09-06T08:21:56.153Z,5.10
2022-09-06T08:24:29.025Z,4.97
2022-09-06T08:26:55.916Z,4.38
2022-09-06T08:29:22.454Z,3.88
2022-09-06T08:31:49.438Z,4.00
2022-09-06T08:34:16.080Z,3.80
2022-09-06T08:36:43.350Z,3.92
2022-09-06T08:39:14.784Z,3.58
2022-09-06T08:41:58.095Z,4.50
2022-09-06T08:44:58.437Z,4.38
2022-09-06T08:47:25.592Z,3.50
2022-09-06T08:49:56.812Z,3.20
2022-09-06T08:52:26.041Z,3.30
2022-09-06T08:55:02.124Z,3.50
2022-09-06T08:57:46.055Z,3.42
2022-09-06T09:00:15.771Z,3.20
2022-09-06T09:02:51.791Z,3.30
2022-09-06T09:05:31.894Z,3.50
2022-09-06T09:08:18.479Z,3.40
2022-09-06T09:10:54.417Z,3.10
2022-09-06T09:13:34.482Z,3.53
2022-09-06T09:16:01.572Z,2.95
2022-09-06T09:18:38.644Z,2.85
2022-09-06T09:21:06.130Z,3.25
2022-09-06T09:23:35.061Z,2.40
2022-09-06T09:26:16.922Z,3.42
2022-09-06T09:29:11.310Z,3.25
2022-09-06T09:31:53.622Z,3.40
2022-09-06T09:34:33.950Z,3.17
2022-09-06T09:40:26.054Z,3.28
2022-09-06T09:42:56.776Z,3.33
2022-09-06T09:45:29.702Z,4.13
2022-09-06T09:47:56.851Z,3.88
2022-09-06T09:50:34.184Z,3.33
2022-09-06T09:53:11.674Z,3.20
2022-09-06T09:55:39.245Z,3.08
2022-09-06T09:58:08.668Z,3.20
2022-09-06T10:00:39.979Z,3.28
2022-09-06T10:03:20.822Z,3.63
2022-09-06T10:06:03.767Z,3.70
2022-09-06T10:08:35.299Z,3.20
2022-09-06T10:11:02.181Z,3.63
2022-09-06T10:13:30.414Z,3.20
2022-09-06T10:16:00.816Z,3.05
2022-09-06T10:18:37.568Z,3.00
2022-09-06T10:21:20.738Z,3.30
2022-09-06T10:26:55.453Z,2.78
2022-09-06T10:29:53.175Z,2.65
2022-09-06T10:33:01.686Z,3.45
2022-09-06T10:35:32.237Z,3.17
2022-09-06T10:38:01.795Z,2.55
2022-09-06T10:40:50.522Z,3.40
2022-09-06T10:43:20.465Z,2.80
2022-09-06T10:45:58.280Z,3.22
2022-09-06T10:48:35.117Z,3.15
2022-09-06T10:51:27.567Z,3.35
2022-09-06T10:54:01.876Z,3.20
2022-09-06T10:56:50.143Z,3.20
2022-09-06T11:02:14.734Z,2.78
2022-09-06T11:07:31.991Z,3.33
2022-09-06T11:10:07.899Z,3.30
2022-09-06T11:12:44.635Z,3.45
2022-09-06T11:15:14.929Z,3.45
2022-09-06T11:17:50.546Z,3.10
2022-09-06T11:23:14.869Z,3.75
2022-09-06T11:26:05.906Z,3.30
2022-09-06T11:28:52.359Z,2.97
2022-09-06T11:34:32.235Z,2.65
2022-09-06T11:37:01.086Z,2.38
2022-09-06T11:43:01.463Z,3.22
2022-09-06T11:45:52.634Z,3.15
2022-09-06T11:48:34.196Z,3.40
2022-09-06T11:51:06.704Z,3.03
2022-09-06T11:53:50.504Z,3.13
2022-09-06T11:56:28.394Z,3.15
2022-09-06T11:59:06.274Z,3.00
2022-09-06T12:01:36.204Z,3.47
2022-09-06T12:04:07.593Z,3.40
2022-09-06T12:06:44.127Z,2.88
2022-09-06T12:09:31.611Z,2.63
2022-09-06T12:12:01.274Z,2.83
2022-09-06T12:14:33.030Z,2.72
2022-09-06T12:16:59.525Z,2.90
2022-09-06T12:19:52.376Z,2.65
2022-09-06T12:22:29.403Z,2.30
2022-09-06T12:25:50.279Z,2.30
2022-09-06T12:28:27.447Z,2.30
2022-09-06T12:30:54.307Z,2.20
2022-09-06T12:33:28.607Z,2.50
2022-09-06T12:36:14.118Z,2.33
2022-09-06T12:38:53.434Z,2.20
2022-09-06T12:41:25.643Z,2.65
2022-09-06T12:43:52.720Z,2.22
2022-09-06T12:46:19.519Z,2.83
2022-09-06T12:49:07.903Z,2.60
2022-09-06T12:51:36.666Z,2.92
2022-09-06T12:54:06.855Z,2.80
2022-09-06T12:56:34.545Z,2.58
2022-09-06T12:59:22.063Z,2.72
2022-09-06T13:02:07.572Z,2.97
2022-09-06T13:04:54.243Z,2.60
2022-09-06T13:07:24.154Z,2.00
2022-09-06T13:09:55.239Z,1.90
2022-09-06T13:12:33.544Z,1.67
2022-09-06T13:15:17.223Z,1.92
2022-09-06T13:17:44.106Z,1.60
2022-09-06T13:20:27.509Z,1.60
2022-09-06T13:23:07.184Z,1.23
2022-09-06T13:25:33.762Z,1.50
2022-09-06T13:28:04.292Z,1.30
2022-09-06T13:30:38.052Z,1.20
2022-09-06T13:33:06.910Z,1.38
2022-09-06T13:35:37.244Z,1.40
2022-09-06T13:38:23.591Z,1.50
2022-09-06T13:41:10.940Z,1.27
2022-09-06T13:43:45.291Z,1.70
2022-09-06T13:46:12.123Z,1.60
2022-09-06T13:48:44.624Z,1.27
2022-09-06T13:51:11.870Z,1.40
2022-09-06T13:53:38.553Z,1.52
2022-09-06T13:56:09.047Z,1.65
2022-09-06T13:58:38.304Z,1.65
2022-09-06T14:01:10.031Z,1.60
2022-09-06T14:03:47.035Z,1.23
2022-09-06T14:06:13.530Z,1.25
2022-09-06T14:09:03.335Z,1.20
2022-09-06T14:11:26.847Z,1.10
2022-09-06T14:13:55.404Z,1.15
2022-09-06T14:16:22.023Z,1.60
2022-09-06T14:18:49.145Z,1.40
2022-09-06T14:21:16.609Z,1.58
2022-09-06T14:23:48.284Z,1.30
2022-09-06T14:26:15.608Z,1.63
2022-09-06T14:28:45.907Z,1.40
2022-09-06T14:31:15.616Z,1.60
2022-09-06T14:33:42.823Z,1.70
2022-09-06T14:36:12.992Z,1.50
2022-09-06T14:38:40.831Z,1.50
2022-09-06T14:41:09.036Z,2.30
2022-09-06T14:43:36.572Z,1.75
2022-09-06T14:46:14.350Z,1.70
2022-09-06T14:48:42.991Z,1.95
2022-09-06T14:51:25.660Z,1.80
2022-09-06T14:53:55.242Z,1.90
2022-09-06T14:56:23.029Z,2.10
2022-09-06T14:58:51.416Z,1.50
2022-09-06T15:01:24.954Z,1.30
2022-09-06T15:03:55.477Z,1.95
2022-09-06T15:06:23.551Z,1.40
2022-09-06T15:08:52.131Z,1.20
2022-09-06T15:11:38.845Z,1.20
2022-09-06T15:14:08.986Z,1.20
2022-09-06T15:16:36.230Z,0.90
2022-09-06T15:19:04.641Z,0.93
2022-09-06T15:21:32.426Z,1.13
2022-09-06T15:24:00.426Z,1.20
2022-09-06T15:26:27.183Z,0.95
2022-09-06T15:28:53.825Z,0.95
2022-09-06T15:31:21.092Z,0.93
2022-09-06T15:33:54.683Z,1.10
2022-09-06T15:36:22.009Z,1.10
2022-09-06T15:38:53.961Z,1.20
2022-09-06T15:41:26.622Z,1.35
2022-09-06T15:43:56.745Z,1.30
2022-09-06T15:47:01.524Z,1.33
2022-09-06T15:49:32.180Z,1.20
2022-09-06T15:52:01.546Z,1.10
2022-09-06T15:55:01.461Z,1.10
2022-09-06T15:57:28.912Z,1.52
2022-09-06T15:59:55.710Z,1.40
2022-09-06T16:02:24.561Z,1.70
2022-09-06T16:04:51.307Z,1.38
2022-09-06T16:07:18.153Z,1.70
2022-09-06T16:09:45.532Z,1.70
2022-09-06T16:12:12.333Z,1.95
2022-09-06T16:14:38.997Z,1.50
2022-09-06T16:17:07.528Z,1.70
2022-09-06T16:19:34.181Z,2.00
2022-09-06T16:22:01.160Z,1.60
2022-09-06T16:24:28.465Z,1.35
2022-09-06T16:26:55.168Z,1.77
2022-09-06T16:29:21.761Z,1.13
2022-09-06T16:31:56.929Z,1.70
2022-09-06T16:34:23.555Z,1.63
2022-09-06T16:36:50.210Z,1.80
2022-09-06T16:39:16.931Z,1.55
2022-09-06T16:41:45.789Z,1.10
2022-09-06T16:44:17.175Z,1.75
2022-09-06T16:46:48.100Z,1.38
2022-09-06T16:49:17.217Z,1.80
2022-09-06T16:51:44.239Z,1.70
2022-09-06T16:54:15.834Z,1.70
2022-09-06T16:56:43.153Z,1.50
2022-09-06T16:59:10.970Z,1.83
2022-09-06T17:01:41.778Z,1.70
2022-09-06T17:04:09.641Z,1.50
2022-09-06T17:06:45.930Z,1.92
2022-09-06T17:09:15.532Z,1.50
2022-09-06T17:11:42.781Z,1.90
2022-09-06T17:14:09.598Z,1.65
2022-09-06T17:16:54.764Z,1.98
2022-09-06T17:19:23.673Z,1.90
2022-09-06T17:21:50.787Z,1.55
2022-09-06T17:24:17.411Z,1.67
2022-09-06T17:26:43.947Z,1.92
2022-09-06T17:29:10.942Z,2.65
2022-09-06T17:31:38.214Z,1.88
2022-09-06T17:34:05.981Z,2.05
2022-09-06T17:36:33.874Z,2.17
2022-09-06T17:39:13.976Z,2.10
2022-09-06T17:41:45.715Z,1.80
2022-09-06T17:44:23.606Z,1.42
2022-09-06T17:47:11.335Z,1.50
2022-09-06T17:49:39.393Z,1.60
2022-09-06T17:52:05.957Z,1.92
2022-09-06T17:54:32.566Z,1.50
2022-09-06T17:56:59.291Z,1.60
2022-09-06T17:59:25.906Z,2.00
2022-09-06T18:01:52.545Z,1.63
2022-09-06T18:04:19.521Z,1.30
2022-09-06T18:06:48.018Z,1.77
2022-09-06T18:09:17.268Z,1.42
2022-09-06T18:11:48.386Z,1.30
2022-09-06T18:14:18.114Z,1.30
2022-09-06T18:16:49.283Z,1.52
2022-09-06T18:19:19.419Z,1.25
2022-09-06T18:21:46.870Z,1.20
2022-09-06T18:24:16.505Z,1.00
2022-09-06T18:26:45.276Z,1.30
2022-09-06T18:29:14.893Z,1.30
2022-09-06T18:31:41.794Z,1.23
2022-09-06T18:34:09.023Z,1.10
2022-09-06T18:36:38.780Z,1.30
2022-09-06T18:39:06.291Z,1.30
2022-09-06T18:41:54.819Z,1.50
2022-09-06T18:44:22.407Z,1.40
2022-09-06T18:46:50.002Z,1.80
2022-09-06T18:49:19.192Z,1.65
2022-09-06T18:51:46.027Z,1.60
2022-09-06T18:54:13.624Z,1.60
2022-09-06T18:56:42.844Z,1.50
2022-09-06T18:59:10.845Z,1.60
2022-09-06T19:01:37.596Z,1.50
2022-09-06T19:04:05.535Z,1.30
2022-09-06T19:06:35.350Z,1.35
2022-09-06T19:09:06.106Z,1.40
2022-09-06T19:11:33.567Z,1.30
2022-09-06T19:14:00.714Z,1.33
2022-09-06T19:16:29.252Z,1.10
2022-09-06T19:19:01.083Z,1.25
2022-09-06T19:21:27.877Z,1.20
2022-09-06T19:24:04.457Z,1.25
2022-09-06T19:26:34.343Z,1.40
2022-09-06T19:29:03.525Z,1.40
2022-09-06T19:31:37.380Z,1.63
2022-09-06T19:34:04.720Z,1.65
2022-09-06T19:36:33.828Z,1.48
2022-09-06T19:39:07.692Z,1.50
2022-09-06T19:41:38.074Z,1.20
2022-09-06T19:44:05.902Z,1.50
2022-09-06T19:46:35.342Z,1.52
2022-09-06T19:49:02.358Z,1.58
2022-09-06T19:51:29.291Z,1.75
2022-09-06T19:54:00.239Z,1.50
2022-09-06T19:56:33.404Z,1.60
2022-09-06T19:59:12.435Z,1.50
2022-09-06T20:01:40.745Z,1.50
2022-09-06T20:04:10.708Z,1.67
2022-09-06T20:06:39.608Z,1.52
2022-09-06T20:09:09.004Z,1.60
2022-09-06T20:11:38.757Z,1.50
2022-09-06T20:14:06.096Z,1.55
2022-09-06T20:16:39.378Z,1.30
2022-09-06T20:19:14.784Z,1.50
2022-09-06T20:21:41.798Z,1.58
2022-09-06T20:24:09.060Z,1.65
2022-09-06T20:26:36.125Z,1.60
2022-09-06T20:29:04.938Z,1.17
2022-09-06T20:31:32.153Z,1.90
2022-09-06T20:34:00.373Z,1.48
2022-09-06T20:36:27.368Z,1.42
2022-09-06T20:38:54.213Z,1.80
2022-09-06T20:41:23.922Z,1.40
2022-09-06T20:43:54.629Z,1.52
2022-09-06T20:46:23.590Z,1.85
2022-09-06T20:48:50.426Z,1.63
2022-09-06T20:51:19.488Z,1.35
2022-09-06T20:53:59.749Z,1.77
2022-09-06T20:56:34.839Z,1.55
2022-09-06T20:59:07.225Z,1.98
2022-09-06T21:01:45.722Z,1.35
2022-09-06T21:04:20.726Z,1.58
2022-09-06T21:06:49.718Z,1.40
2022-09-06T21:09:16.986Z,1.30
2022-09-06T21:11:45.485Z,1.40
2022-09-06T21:14:12.712Z,1.40
2022-09-06T21:16:40.795Z,1.27
2022-09-06T21:19:11.344Z,1.10
2022-09-06T21:21:40.721Z,1.30
2022-09-06T21:24:08.321Z,1.88
2022-09-06T21:26:35.751Z,1.45
2022-09-06T21:29:02.302Z,1.55
2022-09-06T21:31:31.400Z,1.60
2022-09-06T21:34:04.888Z,2.05
2022-09-06T21:36:34.910Z,2.40
2022-09-06T21:39:04.293Z,2.13
2022-09-06T21:41:38.510Z,2.17
2022-09-06T21:44:06.785Z,2.28
2022-09-06T21:46:36.265Z,2.28
2022-09-06T21:49:08.883Z,2.83
2022-09-06T21:51:36.023Z,2.58
2022-09-06T21:54:04.785Z,2.38
2022-09-06T21:56:34.202Z,2.60
2022-09-06T21:59:01.051Z,2.58
2022-09-06T22:01:29.805Z,2.22
2022-09-06T22:03:56.520Z,1.90
2022-09-06T22:06:31.278Z,2.15
2022-09-06T22:09:03.136Z,2.53
2022-09-06T22:11:32.585Z,1.90
2022-09-06T22:14:01.182Z,2.10
2022-09-06T22:16:28.887Z,2.28
2022-09-06T22:18:55.724Z,1.85
2022-09-06T22:21:23.080Z,2.05
2022-09-06T22:24:04.234Z,2.17
2022-09-06T22:26:32.539Z,2.42
2022-09-06T22:29:01.237Z,2.20
2022-09-06T22:31:29.583Z,1.90
2022-09-06T22:34:04.512Z,1.90
2022-09-06T22:36:31.738Z,1.63
2022-09-06T22:38:59.323Z,1.60
2022-09-06T22:41:31.018Z,2.13
2022-09-06T22:44:02.239Z,2.00
2022-09-06T22:46:29.007Z,2.00
2022-09-06T22:48:55.704Z,2.00
2022-09-06T22:51:22.751Z,1.73
2022-09-06T22:53:49.338Z,1.80
2022-09-06T22:56:18.000Z,2.20
2022-09-06T22:58:44.723Z,1.60
2022-09-06T23:01:14.119Z,2.08
2022-09-06T23:03:41.833Z,1.70
2022-09-06T23:06:14.434Z,1.83
2022-09-06T23:08:41.640Z,1.92
2022-09-06T23:11:13.668Z,1.80
2022-09-06T23:13:44.084Z,2.30
2022-09-06T23:16:14.503Z,2.00
2022-09-06T23:18:41.516Z,1.95
2022-09-06T23:21:10.733Z,1.55
2022-09-06T23:23:38.424Z,1.50
2022-09-06T23:26:16.435Z,1.67
2022-09-06T23:28:45.569Z,2.03
2022-09-06T23:31:14.805Z,1.92
2022-09-06T23:33:42.075Z,2.28
2022-09-06T23:36:11.491Z,2.42
2022-09-06T23:38:39.884Z,2.30
2022-09-06T23:41:18.108Z,2.60
2022-09-06T23:43:45.752Z,2.67
2022-09-06T23:46:15.975Z,3.10
2022-09-06T23:48:43.510Z,3.20
2022-09-06T23:51:11.164Z,3.92
2022-09-06T23:53:37.759Z,2.65
2022-09-06T23:56:04.885Z,3.50
2022-09-06T23:58:32.190Z,2.97
